Time;durP1;ratioP1;P1;durP2;ratioP2;P2;SDS_P1;SDS_P2;PMS_P1;PMS_P2;Temp;Humidity;BMP_temperature;BMP_pressure;BME280_temperature;BME280_humidity;BME280_pressure;Samples;Min_cycle;Max_cycle;Signal;HPM_P1;HPM_P2
2022/11/03 00:00:32;;;;;;;;;;;12.20;99.90;;;;;;4997338;28;19921;-69
2022/11/03 00:02:58;;;;;;;;;;;12.20;99.90;;;;;;5034946;28;19921;-69
2022/11/03 00:08:15;;;;;;;;;;;12.10;99.90;;;;;;5003982;28;19921;-69
2022/11/03 00:10:40;;;;;;;;;;;12.40;99.90;;;;;;5010898;28;19944;-69
2022/11/03 00:13:06;;;;;;;;;;;12.10;99.90;;;;;;5072019;22;19928;-74
2022/11/03 00:15:31;;;;;;;;;;;12.10;99.90;;;;;;5085552;28;19975;-74
2022/11/03 00:17:57;;;;;;;;;;;12.20;99.90;;;;;;5093889;28;19924;-74
2022/11/03 00:20:22;;;;;;;;;;;12.30;99.90;;;;;;5093401;28;19920;-74
2022/11/03 00:22:48;;;;;;;;;;;12.10;99.90;;;;;;5076123;28;19920;-74
2022/11/03 00:25:13;;;;;;;;;;;12.00;99.90;;;;;;5085594;28;19920;-73
2022/11/03 00:27:38;;;;;;;;;;;12.20;99.90;;;;;;5094709;28;19920;-74
2022/11/03 00:30:04;;;;;;;;;;;12.00;99.90;;;;;;5093810;28;19920;-73
2022/11/03 00:32:30;;;;;;;;;;;12.00;99.90;;;;;;5093033;28;20389;-74
2022/11/03 00:34:55;;;;;;;;;;;12.10;99.90;;;;;;5092620;28;20540;-74
2022/11/03 00:37:21;;;;;;;;;;;12.20;99.90;;;;;;5093697;28;19924;-74
2022/11/03 00:39:46;;;;;;;;;;;12.00;99.90;;;;;;5084608;28;20059;-74
2022/11/03 00:42:11;;;;;;;;;;;12.00;99.90;;;;;;5079688;28;19921;-73
2022/11/03 00:44:37;;;;;;;;;;;12.10;99.90;;;;;;5073480;28;20332;-73
2022/11/03 00:47:02;;;;;;;;;;;12.20;99.90;;;;;;5093187;28;20015;-73
2022/11/03 00:49:28;;;;;;;;;;;12.00;99.90;;;;;;5094342;28;19932;-74
2022/11/03 00:51:53;;;;;;;;;;;12.00;99.90;;;;;;5094238;28;19920;-74
2022/11/03 00:54:19;;;;;;;;;;;12.00;99.90;;;;;;5092175;28;19924;-74
2022/11/03 00:56:45;;;;;;;;;;;;;;;;;;5092970;28;19921;-74
2022/11/03 00:59:10;;;;;;;;;;;11.90;99.90;;;;;;5075897;28;19923;-73
2022/11/03 01:01:36;;;;;;;;;;;;;;;;;;5092595;28;19931;-73
2022/11/03 01:06:49;;;;;;;;;;;;;;;;;;5092785;28;19930;-74
2022/11/03 01:09:18;;;;;;;;;;;11.90;99.90;;;;;;5093016;28;20297;-74
2022/11/03 01:11:50;;;;;;;;;;;11.90;99.90;;;;;;5093907;28;19920;-74
2022/11/03 01:14:16;;;;;;;;;;;11.90;99.90;;;;;;5088847;28;19928;-74
2022/11/03 01:16:42;;;;;;;;;;;;;;;;;;5092557;28;19966;-74
2022/11/03 01:19:07;;;;;;;;;;;11.80;99.90;;;;;;5092043;28;20640;-74
2022/11/03 01:21:33;;;;;;;;;;;11.80;99.90;;;;;;5093694;28;20396;-74
2022/11/03 01:24:00;;;;;;;;;;;11.80;99.90;;;;;;5074105;28;20415;-74
2022/11/03 01:26:26;;;;;;;;;;;11.80;99.90;;;;;;5092640;28;20063;-74
2022/11/03 01:28:53;;;;;;;;;;;11.70;99.90;;;;;;5091559;28;20449;-73
2022/11/03 01:31:20;;;;;;;;;;;11.70;99.90;;;;;;5091847;28;19990;-74
2022/11/03 01:33:46;;;;;;;;;;;;;;;;;;5092794;28;19969;-73
2022/11/03 01:36:12;;;;;;;;;;;;;;;;;;5090011;28;20045;-74
2022/11/03 01:38:38;;;;;;;;;;;11.50;99.90;;;;;;5091814;28;19927;-74
2022/11/03 01:41:05;;;;;;;;;;;11.60;99.90;;;;;;5093074;28;19921;-74
2022/11/03 01:43:34;;;;;;;;;;;11.50;99.90;;;;;;5081600;28;19920;-74
2022/11/03 01:46:06;;;;;;;;;;;11.60;99.90;;;;;;5054318;28;20046;-73
2022/11/03 01:48:33;;;;;;;;;;;11.40;99.90;;;;;;5073014;28;19920;-74
2022/11/03 01:50:59;;;;;;;;;;;11.60;99.90;;;;;;5055318;28;20267;-74
2022/11/03 01:53:25;;;;;;;;;;;11.30;99.90;;;;;;5075565;28;19926;-73
2022/11/03 01:55:53;;;;;;;;;;;11.40;99.90;;;;;;5090954;28;19923;-74
2022/11/03 01:58:21;;;;;;;;;;;11.50;99.90;;;;;;5091972;28;20391;-73
2022/11/03 02:00:47;;;;;;;;;;;11.50;99.90;;;;;;5091483;28;19924;-73
2022/11/03 02:03:13;;;;;;;;;;;;;;;;;;5092316;28;19927;-73
2022/11/03 02:05:39;;;;;;;;;;;;;;;;;;5088927;28;19920;-73
2022/11/03 02:08:10;;;;;;;;;;;11.20;99.90;;;;;;5091651;28;19966;-74
2022/11/03 02:10:36;;;;;;;;;;;11.30;99.90;;;;;;5076607;28;19973;-73
2022/11/03 02:13:06;;;;;;;;;;;11.20;99.90;;;;;;5091185;28;19920;-73
2022/11/03 02:15:32;;;;;;;;;;;11.10;99.90;;;;;;5090559;28;20368;-73
2022/11/03 02:17:58;;;;;;;;;;;11.00;99.90;;;;;;5092349;28;19927;-73
2022/11/03 02:20:25;;;;;;;;;;;11.10;99.90;;;;;;5092565;28;19921;-73
2022/11/03 02:23:04;;;;;;;;;;;11.30;99.90;;;;;;5092411;28;19965;-73
2022/11/03 02:25:48;;;;;;;;;;;11.30;99.90;;;;;;5089624;28;20377;-74
2022/11/03 02:28:15;;;;;;;;;;;10.90;99.90;;;;;;5091559;28;20246;-73
2022/11/03 02:30:43;;;;;;;;;;;11.00;99.90;;;;;;5092574;28;19920;-73
2022/11/03 02:33:12;;;;;;;;;;;11.10;99.90;;;;;;5091968;28;20452;-73
2022/11/03 02:35:45;;;;;;;;;;;11.30;99.90;;;;;;5089661;28;19924;-73
2022/11/03 02:38:13;;;;;;;;;;;11.20;99.90;;;;;;5091498;28;19920;-73
2022/11/03 02:40:41;;;;;;;;;;;11.10;99.90;;;;;;5092569;28;19920;-73
2022/11/03 02:43:08;;;;;;;;;;;11.20;99.90;;;;;;5090730;28;19920;-73
2022/11/03 02:45:34;;;;;;;;;;;11.30;99.90;;;;;;5089400;28;19927;-73
2022/11/03 02:48:01;;;;;;;;;;;11.40;99.90;;;;;;5085205;28;19920;-73
2022/11/03 02:50:27;;;;;;;;;;;;;;;;;;5090812;28;20351;-73
2022/11/03 02:52:52;;;;;;;;;;;11.00;99.90;;;;;;5092115;28;19928;-73
2022/11/03 02:55:37;;;;;;;;;;;11.30;99.90;;;;;;5082387;28;20394;-73
2022/11/03 02:58:18;;;;;;;;;;;11.30;99.90;;;;;;5071874;28;19920;-73
2022/11/03 03:00:44;;;;;;;;;;;;;;;;;;5091112;28;19981;-73
2022/11/03 03:03:29;;;;;;;;;;;11.30;99.90;;;;;;5073851;28;20394;-73
2022/11/03 03:06:06;;;;;;;;;;;11.10;99.90;;;;;;5090433;28;19920;-73
2022/11/03 03:08:32;;;;;;;;;;;;;;;;;;5091459;28;20314;-73
2022/11/03 03:10:59;;;;;;;;;;;11.20;99.90;;;;;;5090719;28;19920;-73
2022/11/03 03:13:25;;;;;;;;;;;;;;;;;;5069657;28;19927;-73
2022/11/03 03:15:59;;;;;;;;;;;11.10;99.90;;;;;;5080988;28;19924;-73
2022/11/03 03:18:28;;;;;;;;;;;11.20;99.90;;;;;;5090800;28;19920;-73
2022/11/03 03:21:00;;;;;;;;;;;11.20;99.90;;;;;;5091395;28;19920;-73
2022/11/03 03:23:28;;;;;;;;;;;11.20;99.90;;;;;;5089163;28;20009;-73
2022/11/03 03:26:00;;;;;;;;;;;11.10;99.90;;;;;;5089846;28;19927;-73
2022/11/03 03:28:44;;;;;;;;;;;11.00;99.90;;;;;;5090896;28;19920;-73
2022/11/03 03:31:10;;;;;;;;;;;;;;;;;;5091544;28;19928;-73
2022/11/03 03:33:36;;;;;;;;;;;10.90;99.90;;;;;;5073707;28;20065;-73
2022/11/03 03:36:03;;;;;;;;;;;11.30;99.90;;;;;;5088279;28;20420;-73
2022/11/03 03:38:32;;;;;;;;;;;11.20;99.90;;;;;;5094348;28;19920;-73
2022/11/03 03:40:58;;;;;;;;;;;;;;;;;;5095441;28;19920;-73
2022/11/03 03:43:24;;;;;;;;;;;;;;;;;;5094234;28;19920;-73
2022/11/03 03:45:50;;;;;;;;;;;;;;;;;;5093782;28;19920;-73
2022/11/03 03:48:16;;;;;;;;;;;10.90;99.90;;;;;;5094652;28;19999;-73
2022/11/03 03:50:42;;;;;;;;;;;10.90;99.90;;;;;;5094125;28;19920;-73
2022/11/03 03:53:10;;;;;;;;;;;11.10;99.90;;;;;;5095363;28;20011;-73
2022/11/03 03:55:37;;;;;;;;;;;10.90;99.90;;;;;;5081902;28;19925;-73
2022/11/03 03:58:03;;;;;;;;;;;11.00;99.90;;;;;;5074834;28;19920;-72
2022/11/03 04:00:29;;;;;;;;;;;11.00;99.90;;;;;;5074058;28;19932;-72
2022/11/03 04:02:57;;;;;;;;;;;10.90;99.90;;;;;;5080422;28;20003;-73
2022/11/03 04:05:23;;;;;;;;;;;11.00;99.90;;;;;;5093176;28;19924;-72
2022/11/03 04:07:49;;;;;;;;;;;11.00;99.90;;;;;;5093779;28;19973;-72
2022/11/03 04:10:15;;;;;;;;;;;10.80;99.90;;;;;;5093476;28;19927;-72
2022/11/03 04:24:09;;;;;;;;;;;;;;;;;;5092721;28;19973;-73
2022/11/03 04:26:34;;;;;;;;;;;10.80;99.90;;;;;;5094571;28;19923;-73
2022/11/03 04:29:00;;;;;;;;;;;10.70;99.90;;;;;;5093145;28;20508;-73
2022/11/03 04:31:27;;;;;;;;;;;11.10;99.90;;;;;;5093454;28;19942;-73
2022/11/03 04:33:53;;;;;;;;;;;;;;;;;;5092357;28;20313;-73
2022/11/03 04:36:20;;;;;;;;;;;11.10;99.90;;;;;;5093037;28;19920;-73
2022/11/03 04:38:46;;;;;;;;;;;11.10;99.90;;;;;;5093403;28;19920;-73
2022/11/03 04:41:12;;;;;;;;;;;;;;;;;;5093196;28;19965;-73
2022/11/03 04:43:38;;;;;;;;;;;;;;;;;;5092852;28;19965;-73
2022/11/03 04:46:04;;;;;;;;;;;11.00;99.90;;;;;;5092341;28;20048;-73
2022/11/03 04:48:30;;;;;;;;;;;10.90;99.90;;;;;;5093521;28;19920;-73
2022/11/03 04:50:56;;;;;;;;;;;;;;;;;;5093328;28;20322;-73
2022/11/03 04:53:22;;;;;;;;;;;10.80;99.90;;;;;;5076471;28;19927;-73
2022/11/03 04:55:52;;;;;;;;;;;11.00;99.90;;;;;;5092110;28;19924;-73
2022/11/03 04:58:21;;;;;;;;;;;10.90;99.90;;;;;;5094086;28;19927;-73
2022/11/03 05:00:47;;;;;;;;;;;;;;;;;;5092484;28;19946;-72
2022/11/03 05:03:26;;;;;;;;;;;11.00;99.90;;;;;;5085565;28;20390;-73
2022/11/03 05:05:52;;;;;;;;;;;11.20;99.90;;;;;;5092169;28;19920;-73
2022/11/03 05:08:18;;;;;;;;;;;11.00;99.90;;;;;;5092472;28;19927;-73
2022/11/03 05:10:44;;;;;;;;;;;11.20;99.90;;;;;;5092989;28;19924;-73
2022/11/03 05:13:16;;;;;;;;;;;11.00;99.90;;;;;;5094085;28;19920;-73
2022/11/03 05:15:42;;;;;;;;;;;11.20;99.90;;;;;;5089552;28;19931;-73
2022/11/03 05:18:08;;;;;;;;;;;;;;;;;;5092432;28;19923;-73
2022/11/03 05:20:35;;;;;;;;;;;11.10;99.90;;;;;;5075718;28;19927;-73
2022/11/03 05:23:01;;;;;;;;;;;11.10;99.90;;;;;;5091974;28;19969;-73
2022/11/03 05:25:34;;;;;;;;;;;11.10;99.90;;;;;;5093229;28;20282;-73
2022/11/03 05:28:00;;;;;;;;;;;11.00;99.90;;;;;;5093634;28;20382;-73
2022/11/03 05:30:25;;;;;;;;;;;11.10;99.90;;;;;;5092234;28;19999;-73
2022/11/03 05:32:51;;;;;;;;;;;;;;;;;;5092154;28;19920;-73
2022/11/03 05:35:17;;;;;;;;;;;;;;;;;;5089562;28;20081;-73
2022/11/03 05:37:42;;;;;;;;;;;11.10;99.90;;;;;;5093730;28;20320;-73
2022/11/03 05:40:22;;;;;;;;;;;11.10;99.90;;;;;;5093398;28;19921;-73
2022/11/03 05:42:59;;;;;;;;;;;11.10;99.90;;;;;;5090679;28;19920;-72
2022/11/03 05:45:28;;;;;;;;;;;11.10;99.90;;;;;;5065365;28;20309;-73
2022/11/03 05:47:54;;;;;;;;;;;11.00;99.90;;;;;;5071861;28;19944;-73
2022/11/03 05:50:21;;;;;;;;;;;11.10;99.90;;;;;;5073017;28;19920;-73
2022/11/03 05:52:47;;;;;;;;;;;11.30;99.90;;;;;;5075849;28;19969;-73
2022/11/03 05:55:13;;;;;;;;;;;;;;;;;;5078213;28;20019;-73
2022/11/03 05:57:38;;;;;;;;;;;11.00;99.90;;;;;;5088225;28;20037;-73
2022/11/03 06:00:04;;;;;;;;;;;;;;;;;;5085532;28;20305;-73
2022/11/03 06:02:37;;;;;;;;;;;11.00;99.90;;;;;;5092543;28;19928;-73
2022/11/03 06:05:22;;;;;;;;;;;11.00;99.90;;;;;;5092041;28;19974;-73
2022/11/03 06:07:48;;;;;;;;;;;11.30;99.90;;;;;;5091973;28;20324;-73
2022/11/03 06:10:22;;;;;;;;;;;10.90;99.90;;;;;;5091444;28;19978;-73
2022/11/03 06:12:48;;;;;;;;;;;;;;;;;;5091860;28;19927;-73
2022/11/03 06:15:29;;;;;;;;;;;11.30;99.90;;;;;;5091322;28;20297;-73
2022/11/03 06:17:55;;;;;;;;;;;11.10;99.90;;;;;;5092530;28;19920;-73
2022/11/03 06:20:21;;;;;;;;;;;11.30;99.90;;;;;;5092671;28;20397;-73
2022/11/03 06:22:47;;;;;;;;;;;11.10;99.90;;;;;;5087965;28;20007;-72
2022/11/03 06:25:19;;;;;;;;;;;11.20;99.90;;;;;;5089495;28;19997;-72
2022/11/03 06:27:45;;;;;;;;;;;11.10;99.90;;;;;;5090748;28;19920;-72
2022/11/03 06:30:11;;;;;;;;;;;;;;;;;;5087054;28;19920;-72
2022/11/03 06:32:36;;;;;;;;;;;11.30;99.90;;;;;;5072156;28;19927;-72
2022/11/03 06:35:02;;;;;;;;;;;11.10;99.90;;;;;;5068549;28;20015;-72
2022/11/03 06:37:31;;;;;;;;;;;11.20;99.90;;;;;;5087297;28;19920;-72
2022/11/03 06:39:58;;;;;;;;;;;11.10;99.90;;;;;;5082987;28;20019;-72
2022/11/03 06:42:25;;;;;;;;;;;11.20;99.90;;;;;;5077712;28;19967;-72
2022/11/03 06:44:50;;;;;;;;;;;11.20;99.90;;;;;;5070111;28;20271;-72
2022/11/03 06:47:16;;;;;;;;;;;;;;;;;;5088623;28;19931;-73
2022/11/03 06:49:42;;;;;;;;;;;;;;;;;;5065826;28;20389;-73
2022/11/03 06:52:19;;;;;;;;;;;11.10;99.90;;;;;;5083163;28;19927;-73
2022/11/03 06:55:08;;;;;;;;;;;11.20;99.90;;;;;;5072434;28;20291;-73
2022/11/03 06:57:34;;;;;;;;;;;;;;;;;;5083678;28;19920;-73
2022/11/03 07:00:00;;;;;;;;;;;11.10;99.90;;;;;;5090682;28;19920;-73
2022/11/03 07:02:42;;;;;;;;;;;11.20;99.90;;;;;;5092120;28;19927;-73
2022/11/03 07:05:17;;;;;;;;;;;11.40;99.90;;;;;;5090109;28;20423;-73
2022/11/03 07:07:43;;;;;;;;;;;;;;;;;;5086652;28;20290;-73
2022/11/03 07:10:09;;;;;;;;;;;;;;;;;;5073628;28;19927;-73
2022/11/03 07:12:34;;;;;;;;;;;11.50;99.90;;;;;;5084591;28;19928;-73
2022/11/03 07:15:00;;;;;;;;;;;11.50;99.90;;;;;;5073118;28;20022;-74
2022/11/03 07:17:25;;;;;;;;;;;11.30;99.90;;;;;;5076192;28;20023;-73
2022/11/03 07:19:51;;;;;;;;;;;11.40;99.90;;;;;;5059006;28;20397;-73
2022/11/03 07:22:17;;;;;;;;;;;;;;;;;;5077048;28;19985;-73
2022/11/03 07:24:43;;;;;;;;;;;;;;;;;;5090505;28;19924;-73
2022/11/03 07:27:09;;;;;;;;;;;;;;;;;;5089152;28;20331;-73
2022/11/03 07:29:34;;;;;;;;;;;11.40;99.90;;;;;;5088197;28;19931;-73
2022/11/03 07:32:00;;;;;;;;;;;11.50;99.90;;;;;;5089134;28;20018;-73
2022/11/03 07:34:26;;;;;;;;;;;;;;;;;;5089026;28;19928;-73
2022/11/03 07:36:52;;;;;;;;;;;11.70;99.90;;;;;;5085911;28;19931;-73
2022/11/03 07:39:18;;;;;;;;;;;11.80;99.90;;;;;;5080352;28;19924;-73
2022/11/03 07:41:44;;;;;;;;;;;11.60;99.90;;;;;;5085401;28;19924;-73
2022/11/03 07:44:15;;;;;;;;;;;11.70;99.90;;;;;;5087924;28;20579;-73
2022/11/03 07:46:41;;;;;;;;;;;;;;;;;;5081719;28;20477;-73
2022/11/03 07:49:09;;;;;;;;;;;11.70;99.90;;;;;;5085514;28;20053;-73
2022/11/03 07:51:35;;;;;;;;;;;;;;;;;;5078908;28;19924;-73
2022/11/03 07:54:01;;;;;;;;;;;;;;;;;;5079941;28;19921;-72
2022/11/03 07:56:27;;;;;;;;;;;;;;;;;;5079526;28;19928;-72
2022/11/03 07:59:00;;;;;;;;;;;11.80;99.90;;;;;;5080748;28;20416;-73
2022/11/03 08:01:26;;;;;;;;;;;;;;;;;;5078777;28;19932;-73
2022/11/03 08:03:52;;;;;;;;;;;;;;;;;;5082937;28;20140;-74
2022/11/03 08:06:18;;;;;;;;;;;;;;;;;;5070854;28;19928;-73
2022/11/03 08:08:43;;;;;;;;;;;;;;;;;;5078439;28;19943;-73
2022/11/03 08:11:09;;;;;;;;;;;;;;;;;;5086963;28;19920;-73
2022/11/03 08:13:35;;;;;;;;;;;12.10;99.90;;;;;;5077512;28;19977;-74
2022/11/03 08:16:00;;;;;;;;;;;12.10;99.90;;;;;;5088532;28;19928;-74
2022/11/03 08:18:26;;;;;;;;;;;12.10;99.90;;;;;;5082054;28;19949;-73
2022/11/03 08:20:51;;;;;;;;;;;12.00;99.90;;;;;;5093153;28;19924;-74
2022/11/03 08:23:18;;;;;;;;;;;;;;;;;;5090679;28;20294;-73
2022/11/03 08:25:44;;;;;;;;;;;12.40;99.90;;;;;;5071509;28;19943;-73
2022/11/03 08:28:10;;;;;;;;;;;;;;;;;;5078626;28;19920;-73
2022/11/03 08:30:35;;;;;;;;;;;12.50;99.90;;;;;;5091075;28;19975;-73
2022/11/03 08:33:01;;;;;;;;;;;12.30;99.90;;;;;;5077411;28;20536;-74
2022/11/03 08:35:26;;;;;;;;;;;12.50;99.90;;;;;;5055214;28;19932;-74
2022/11/03 08:37:52;;;;;;;;;;;12.70;99.90;;;;;;5071538;28;19943;-74
2022/11/03 08:40:17;;;;;;;;;;;12.60;99.90;;;;;;5073025;28;19920;-74
2022/11/03 08:42:43;;;;;;;;;;;12.40;99.90;;;;;;5075517;28;19920;-73
2022/11/03 08:45:10;;;;;;;;;;;12.50;99.90;;;;;;5075896;28;20007;-73
2022/11/03 08:47:35;;;;;;;;;;;12.60;99.90;;;;;;5055788;28;19928;-74
2022/11/03 08:50:01;;;;;;;;;;;12.70;99.90;;;;;;5071712;28;19921;-73
2022/11/03 08:52:26;;;;;;;;;;;12.60;99.90;;;;;;5072219;28;19924;-73
2022/11/03 08:54:52;;;;;;;;;;;12.70;99.90;;;;;;5072178;28;19924;-73
2022/11/03 08:57:17;;;;;;;;;;;12.60;99.90;;;;;;5073506;28;19925;-73
2022/11/03 08:59:43;;;;;;;;;;;12.60;99.90;;;;;;5092530;28;20389;-73
2022/11/03 09:02:08;;;;;;;;;;;12.70;99.90;;;;;;5078606;28;19942;-73
2022/11/03 09:04:34;;;;;;;;;;;;;;;;;;5070995;28;20404;-73
2022/11/03 09:07:00;;;;;;;;;;;;;;;;;;5072473;28;20008;-73
2022/11/03 09:09:25;;;;;;;;;;;12.80;99.90;;;;;;5075807;28;19921;-73
2022/11/03 09:11:51;;;;;;;;;;;13.00;99.90;;;;;;5092004;28;19920;-72
2022/11/03 09:14:16;;;;;;;;;;;12.80;99.90;;;;;;5073531;28;19929;-73
2022/11/03 09:16:42;;;;;;;;;;;12.90;99.90;;;;;;5071779;28;19921;-73
2022/11/03 09:19:07;;;;;;;;;;;13.00;99.90;;;;;;5072510;28;19926;-73
2022/11/03 09:21:33;;;;;;;;;;;12.90;99.90;;;;;;5070924;28;19921;-73
2022/11/03 09:23:59;;;;;;;;;;;12.90;99.90;;;;;;5070659;28;19920;-73
2022/11/03 09:26:24;;;;;;;;;;;13.00;99.90;;;;;;5065680;28;19920;-71
2022/11/03 09:28:50;;;;;;;;;;;13.00;99.90;;;;;;5090400;28;19973;-71
2022/11/03 09:31:16;;;;;;;;;;;;;;;;;;5088234;28;19924;-73
2022/11/03 09:33:41;;;;;;;;;;;13.00;99.90;;;;;;5091004;28;20011;-72
2022/11/03 09:36:07;;;;;;;;;;;13.10;99.90;;;;;;5083490;28;20014;-73
2022/11/03 09:38:32;;;;;;;;;;;13.30;99.90;;;;;;5072136;28;19925;-72
2022/11/03 09:40:58;;;;;;;;;;;13.20;99.90;;;;;;5071319;28;20367;-72
2022/11/03 09:43:24;;;;;;;;;;;13.40;99.90;;;;;;5071673;28;20528;-72
2022/11/03 09:45:50;;;;;;;;;;;;;;;;;;5085924;28;19920;-73
2022/11/03 09:48:15;;;;;;;;;;;13.20;99.90;;;;;;5079153;28;19924;-73
2022/11/03 09:50:41;;;;;;;;;;;;;;;;;;5054487;28;19965;-72
2022/11/03 09:53:10;;;;;;;;;;;13.30;99.90;;;;;;5072020;28;19974;-72
2022/11/03 09:55:37;;;;;;;;;;;13.40;99.90;;;;;;5069776;28;20291;-72
2022/11/03 09:58:11;;;;;;;;;;;13.50;99.90;;;;;;5075627;28;20330;-73
2022/11/03 10:00:36;;;;;;;;;;;13.60;99.90;;;;;;5088506;28;19923;-72
2022/11/03 10:03:03;;;;;;;;;;;13.50;99.90;;;;;;5089315;28;19942;-71
2022/11/03 10:05:29;;;;;;;;;;;13.60;99.90;;;;;;5088205;28;20384;-72
2022/11/03 10:08:02;;;;;;;;;;;13.50;99.90;;;;;;5087096;28;19920;-72
2022/11/03 10:10:28;;;;;;;;;;;13.70;99.90;;;;;;5100928;28;20354;-73
2022/11/03 10:12:54;;;;;;;;;;;13.50;99.90;;;;;;5090389;28;19946;-72
2022/11/03 10:15:21;;;;;;;;;;;13.70;99.90;;;;;;5069852;28;20393;-72
2022/11/03 10:17:49;;;;;;;;;;;13.60;99.90;;;;;;5088501;28;19931;-73
2022/11/03 10:20:16;;;;;;;;;;;13.70;99.90;;;;;;5090939;28;19927;-73
2022/11/03 10:22:42;;;;;;;;;;;13.70;99.90;;;;;;5088119;28;19970;-73
2022/11/03 10:25:26;;;;;;;;;;;13.60;99.90;;;;;;5087234;28;19932;-72
2022/11/03 10:27:51;;;;;;;;;;;13.70;99.90;;;;;;5088703;28;19955;-73
2022/11/03 10:30:17;;;;;;;;;;;13.80;99.90;;;;;;5090140;28;20024;-73
2022/11/03 10:32:42;;;;;;;;;;;13.70;99.90;;;;;;5088638;28;19920;-73
2022/11/03 10:35:08;;;;;;;;;;;;;;;;;;5090972;28;19924;-73
2022/11/03 10:37:37;;;;;;;;;;;13.60;99.90;;;;;;5074924;28;19943;-73
2022/11/03 10:40:03;;;;;;;;;;;13.80;99.90;;;;;;5070471;28;19974;-73
2022/11/03 10:42:29;;;;;;;;;;;13.80;99.90;;;;;;5071054;28;19924;-73
2022/11/03 10:45:14;;;;;;;;;;;13.80;99.90;;;;;;5069761;28;20362;-73
2022/11/03 10:47:39;;;;;;;;;;;13.90;99.90;;;;;;5076306;28;19959;-73
2022/11/03 10:50:24;;;;;;;;;;;14.10;99.90;;;;;;5072231;28;19994;-73
2022/11/03 10:52:50;;;;;;;;;;;14.00;99.90;;;;;;5070057;28;19924;-73
2022/11/03 10:55:16;;;;;;;;;;;14.10;99.90;;;;;;5052364;28;20534;-73
2022/11/03 10:57:42;;;;;;;;;;;14.10;99.90;;;;;;5069980;28;19925;-74
2022/11/03 11:00:15;;;;;;;;;;;14.40;99.90;;;;;;5070911;28;19931;-73
2022/11/03 11:02:42;;;;;;;;;;;14.30;99.90;;;;;;5090504;28;20298;-74
2022/11/03 11:05:12;;;;;;;;;;;14.40;99.90;;;;;;5081052;28;19976;-74
2022/11/03 11:07:38;;;;;;;;;;;14.40;99.90;;;;;;5080820;28;20546;-73
2022/11/03 11:10:10;;;;;;;;;;;14.40;99.90;;;;;;5089582;28;19939;-73
2022/11/03 11:12:36;;;;;;;;;;;14.50;99.90;;;;;;5070720;28;20021;-72
2022/11/03 11:15:06;;;;;;;;;;;14.30;99.90;;;;;;5070140;28;19978;-73
2022/11/03 11:17:38;;;;;;;;;;;14.40;99.90;;;;;;5069196;28;19924;-73
2022/11/03 11:20:23;;;;;;;;;;;14.40;99.90;;;;;;5069917;28;19928;-73
2022/11/03 11:22:48;;;;;;;;;;;14.40;99.90;;;;;;5082382;28;19935;-73
2022/11/03 11:25:16;;;;;;;;;;;14.60;99.90;;;;;;5068843;28;19921;-72
2022/11/03 11:27:42;;;;;;;;;;;14.90;99.90;;;;;;5053389;28;19920;-73
2022/11/03 11:30:19;;;;;;;;;;;14.80;99.90;;;;;;5069609;28;19924;-73
2022/11/03 11:32:45;;;;;;;;;;;14.80;99.90;;;;;;5069375;28;20078;-72
2022/11/03 11:35:11;;;;;;;;;;;;;;;;;;5051743;28;19932;-73
2022/11/03 11:37:37;;;;;;;;;;;14.80;99.90;;;;;;5077346;28;20023;-73
2022/11/03 11:40:10;;;;;;;;;;;14.80;99.90;;;;;;5070619;28;19927;-73
2022/11/03 11:42:55;;;;;;;;;;;14.80;99.90;;;;;;5078878;28;19967;-73
2022/11/03 11:45:41;;;;;;;;;;;14.60;99.90;;;;;;5068541;28;19974;-73
2022/11/03 11:48:15;;;;;;;;;;;15.40;99.90;;;;;;5069591;28;19928;-74
2022/11/03 11:50:41;;;;;;;;;;;15.00;99.90;;;;;;5068410;28;19977;-74
2022/11/03 11:53:06;;;;;;;;;;;15.00;99.90;;;;;;5052677;28;19928;-73
2022/11/03 11:55:49;;;;;;;;;;;14.80;99.90;;;;;;5069709;28;19978;-73
2022/11/03 11:58:14;;;;;;;;;;;15.00;99.90;;;;;;5078061;28;20285;-73
2022/11/03 12:00:49;;;;;;;;;;;14.90;99.90;;;;;;5074634;28;20016;-74
2022/11/03 12:03:15;;;;;;;;;;;14.90;99.90;;;;;;5072408;28;20386;-74
2022/11/03 12:05:47;;;;;;;;;;;14.90;99.90;;;;;;5085214;28;19973;-74
2022/11/03 12:08:17;;;;;;;;;;;15.10;99.90;;;;;;5091279;28;19921;-74
2022/11/03 12:10:51;;;;;;;;;;;15.00;99.90;;;;;;5081203;28;19936;-73
2022/11/03 12:13:35;;;;;;;;;;;14.80;99.90;;;;;;5100705;22;20003;-73
2022/11/03 12:16:00;;;;;;;;;;;14.90;99.90;;;;;;5034490;28;19929;-73
2022/11/03 12:18:35;;;;;;;;;;;14.60;99.90;;;;;;5035600;28;19966;-73
2022/11/03 12:21:04;;;;;;;;;;;14.80;99.90;;;;;;5035170;28;20306;-73
2022/11/03 12:23:34;;;;;;;;;;;14.90;99.90;;;;;;5054195;28;19925;-73
2022/11/03 12:26:00;;;;;;;;;;;14.70;99.90;;;;;;5035154;28;19925;-73
2022/11/03 12:28:36;;;;;;;;;;;14.80;99.90;;;;;;5017781;28;20327;-71
2022/11/03 12:31:02;;;;;;;;;;;15.10;99.90;;;;;;5026846;28;19921;-73
2022/11/03 12:33:28;;;;;;;;;;;15.00;99.90;;;;;;5054600;28;20334;-73
2022/11/03 12:35:53;;;;;;;;;;;14.90;99.90;;;;;;5048719;28;19925;-72
2022/11/03 12:38:19;;;;;;;;;;;14.80;99.90;;;;;;5035786;28;19944;-73
2022/11/03 12:40:44;;;;;;;;;;;15.80;99.90;;;;;;5012467;28;19964;-72
2022/11/03 12:43:10;;;;;;;;;;;15.00;99.90;;;;;;5049852;28;20058;-72
2022/11/03 12:45:35;;;;;;;;;;;14.80;99.90;;;;;;5007067;28;19921;-72
2022/11/03 12:48:01;;;;;;;;;;;14.70;99.90;;;;;;5031455;28;19932;-73
2022/11/03 12:50:26;;;;;;;;;;;14.90;99.90;;;;;;5049261;28;20005;-72
2022/11/03 12:52:52;;;;;;;;;;;14.80;99.90;;;;;;5030788;28;19929;-73
2022/11/03 12:55:17;;;;;;;;;;;14.90;99.90;;;;;;5030740;28;19925;-72
2022/11/03 12:57:44;;;;;;;;;;;14.80;99.90;;;;;;5048614;28;20302;-72
2022/11/03 13:00:11;;;;;;;;;;;15.00;99.90;;;;;;5031246;28;19935;-72
2022/11/03 13:02:36;;;;;;;;;;;15.00;99.90;;;;;;5049380;28;19978;-72
2022/11/03 13:05:02;;;;;;;;;;;15.00;99.90;;;;;;5011489;28;19929;-72
2022/11/03 13:07:28;;;;;;;;;;;15.00;99.90;;;;;;5031010;28;19959;-72
2022/11/03 13:09:53;;;;;;;;;;;15.10;99.90;;;;;;5028289;28;19967;-72
2022/11/03 13:12:31;;;;;;;;;;;15.20;99.90;;;;;;5045503;28;20358;-73
2022/11/03 13:14:57;;;;;;;;;;;15.10;99.90;;;;;;5029614;28;20421;-72
2022/11/03 13:17:23;;;;;;;;;;;15.10;99.90;;;;;;5025365;28;19925;-72
2022/11/03 13:19:48;;;;;;;;;;;15.20;99.90;;;;;;5044453;28;20727;-72
2022/11/03 13:22:14;;;;;;;;;;;14.90;99.90;;;;;;5028255;28;20003;-72
2022/11/03 13:24:39;;;;;;;;;;;14.90;99.90;;;;;;5015598;28;19925;-73
2022/11/03 13:27:06;;;;;;;;;;;15.20;99.90;;;;;;5035378;28;19921;-72
2022/11/03 13:29:31;;;;;;;;;;;14.80;99.90;;;;;;5035114;28;19928;-72
2022/11/03 13:31:57;;;;;;;;;;;14.90;99.90;;;;;;5052896;28;19924;-72
2022/11/03 13:34:22;;;;;;;;;;;14.90;99.90;;;;;;5052117;28;20334;-72
2022/11/03 13:36:48;;;;;;;;;;;15.00;99.90;;;;;;5059569;28;19921;-72
2022/11/03 13:39:13;;;;;;;;;;;14.80;99.90;;;;;;5047991;28;19947;-72
2022/11/03 13:41:39;;;;;;;;;;;14.70;99.90;;;;;;5065532;28;19925;-72
2022/11/03 13:44:04;;;;;;;;;;;14.70;99.90;;;;;;5058416;28;19931;-72
2022/11/03 13:46:30;;;;;;;;;;;14.70;99.90;;;;;;5035869;28;19933;-73
2022/11/03 13:48:55;;;;;;;;;;;14.80;99.90;;;;;;5019132;28;19921;-73
2022/11/03 13:51:21;;;;;;;;;;;15.00;99.90;;;;;;5035895;28;20283;-73
2022/11/03 13:53:46;;;;;;;;;;;14.70;99.90;;;;;;5052719;28;19920;-73
2022/11/03 13:56:12;;;;;;;;;;;14.90;99.90;;;;;;5034892;28;19947;-72
2022/11/03 13:58:37;;;;;;;;;;;15.00;99.90;;;;;;5018953;28;19921;-73
2022/11/03 14:01:03;;;;;;;;;;;14.90;99.90;;;;;;5034354;28;19920;-73
2022/11/03 14:03:28;;;;;;;;;;;14.90;99.90;;;;;;5032488;28;19921;-72
2022/11/03 14:05:54;;;;;;;;;;;14.70;99.90;;;;;;5013920;28;20379;-73
2022/11/03 14:08:19;;;;;;;;;;;14.70;99.90;;;;;;5027110;28;20015;-73
2022/11/03 14:10:45;;;;;;;;;;;14.70;99.90;;;;;;5034820;28;20370;-70
2022/11/03 14:13:10;;;;;;;;;;;14.60;99.90;;;;;;5034347;28;19928;-71
2022/11/03 14:15:36;;;;;;;;;;;14.50;99.90;;;;;;5032441;28;19925;-71
2022/11/03 14:18:01;;;;;;;;;;;14.80;99.90;;;;;;5034044;28;19927;-71
2022/11/03 14:20:27;;;;;;;;;;;14.60;99.90;;;;;;5033866;28;19982;-71
2022/11/03 14:22:52;;;;;;;;;;;14.60;99.90;;;;;;5052255;28;19924;-72
2022/11/03 14:25:19;;;;;;;;;;;14.70;99.90;;;;;;5033204;28;19987;-72
2022/11/03 14:27:45;;;;;;;;;;;14.70;99.90;;;;;;5034300;28;19954;-72
2022/11/03 14:30:11;;;;;;;;;;;14.50;99.90;;;;;;5052222;28;19925;-72
2022/11/03 14:32:37;;;;;;;;;;;14.40;99.90;;;;;;5033922;28;19928;-72
2022/11/03 14:35:02;;;;;;;;;;;14.60;99.90;;;;;;5051144;28;19925;-72
2022/11/03 14:37:28;;;;;;;;;;;14.50;99.90;;;;;;5033865;28;20405;-72
2022/11/03 14:39:53;;;;;;;;;;;15.40;99.90;;;;;;5034054;28;19920;-72
2022/11/03 14:42:19;;;;;;;;;;;14.60;99.90;;;;;;5033777;28;20382;-72
2022/11/03 14:44:45;;;;;;;;;;;14.60;99.90;;;;;;5032897;28;19920;-72
2022/11/03 14:47:11;;;;;;;;;;;14.70;99.90;;;;;;5033725;28;20382;-72
2022/11/03 14:49:37;;;;;;;;;;;14.60;99.90;;;;;;5034085;28;20039;-72
2022/11/03 14:52:03;;;;;;;;;;;14.70;99.90;;;;;;5051322;28;19960;-72
2022/11/03 14:54:29;;;;;;;;;;;14.70;99.90;;;;;;5015960;28;19929;-72
2022/11/03 14:56:55;;;;;;;;;;;14.60;99.90;;;;;;5033937;28;19970;-72